sensor_id;sensor_type;location;lat;lon;timestamp;pressure;altitude;pressure_sealevel;temperature;humidity
73063;BME280;61230;46.328;19.972;2023-12-20T00:01:12;100717.03;;;-2.83;100.00
73063;BME280;61230;46.328;19.972;2023-12-20T00:03:40;100657.72;;;-3.06;100.00
73063;BME280;61230;46.328;19.972;2023-12-20T00:06:09;100652.16;;;-2.93;100.00
73063;BME280;61230;46.328;19.972;2023-12-20T00:08:37;100708.34;;;-2.54;100.00
73063;BME280;61230;46.328;19.972;2023-12-20T00:11:05;100712.03;;;-2.37;100.00
73063;BME280;61230;46.328;19.972;2023-12-20T00:13:33;100675.88;;;-2.58;100.00
73063;BME280;61230;46.328;19.972;2023-12-20T00:16:00;100703.19;;;-2.80;100.00
73063;BME280;61230;46.328;19.972;2023-12-20T00:18:28;100697.72;;;-2.70;100.00
73063;BME280;61230;46.328;19.972;2023-12-20T00:20:56;100645.84;;;-3.10;100.00
73063;BME280;61230;46.328;19.972;2023-12-20T00:23:23;100688.22;;;-2.68;100.00
73063;BME280;61230;46.328;19.972;2023-12-20T00:25:51;100693.16;;;-2.88;100.00
73063;BME280;61230;46.328;19.972;2023-12-20T00:28:19;100694.94;;;-3.16;100.00
73063;BME280;61230;46.328;19.972;2023-12-20T00:30:47;100631.34;;;-3.39;100.00
73063;BME280;61230;46.328;19.972;2023-12-20T00:33:15;100630.37;;;-3.63;100.00
73063;BME280;61230;46.328;19.972;2023-12-20T00:35:42;100684.84;;;-3.50;100.00
73063;BME280;61230;46.328;19.972;2023-12-20T00:38:10;100682.97;;;-3.45;100.00
73063;BME280;61230;46.328;19.972;2023-12-20T00:40:39;100678.69;;;-3.46;100.00
73063;BME280;61230;46.328;19.972;2023-12-20T00:43:06;100620.50;;;-3.76;100.00
73063;BME280;61230;46.328;19.972;2023-12-20T00:45:34;100672.94;;;-3.26;100.00
73063;BME280;61230;46.328;19.972;2023-12-20T00:48:02;100614.62;;;-3.52;100.00
73063;BME280;61230;46.328;19.972;2023-12-20T00:50:30;100661.69;;;-3.22;100.00
73063;BME280;61230;46.328;19.972;2023-12-20T00:52:57;100651.22;;;-3.18;100.00
73063;BME280;61230;46.328;19.972;2023-12-20T00:55:25;100601.56;;;-3.46;100.00
73063;BME280;61230;46.328;19.972;2023-12-20T00:57:53;100658.06;;;-3.17;100.00
73063;BME280;61230;46.328;19.972;2023-12-20T01:00:21;100647.56;;;-3.37;100.00
73063;BME280;61230;46.328;19.972;2023-12-20T01:02:49;100640.44;;;-3.29;100.00
73063;BME280;61230;46.328;19.972;2023-12-20T01:05:19;100629.75;;;-3.43;100.00
73063;BME280;61230;46.328;19.972;2023-12-20T01:07:47;100644.47;;;-3.48;100.00
73063;BME280;61230;46.328;19.972;2023-12-20T01:10:15;100658.03;;;-3.43;100.00
73063;BME280;61230;46.328;19.972;2023-12-20T01:12:43;100645.16;;;-3.41;100.00
73063;BME280;61230;46.328;19.972;2023-12-20T01:15:11;100577.41;;;-3.68;100.00
73063;BME280;61230;46.328;19.972;2023-12-20T01:17:39;100571.81;;;-3.55;100.00
73063;BME280;61230;46.328;19.972;2023-12-20T01:20:07;100622.25;;;-3.23;100.00
73063;BME280;61230;46.328;19.972;2023-12-20T01:22:35;100622.16;;;-3.20;100.00
73063;BME280;61230;46.328;19.972;2023-12-20T01:25:03;100617.78;;;-3.18;100.00
73063;BME280;61230;46.328;19.972;2023-12-20T01:27:31;100608.41;;;-3.19;100.00
73063;BME280;61230;46.328;19.972;2023-12-20T01:29:59;100611.47;;;-3.08;100.00
73063;BME280;61230;46.328;19.972;2023-12-20T01:32:27;100612.78;;;-2.96;100.00
73063;BME280;61230;46.328;19.972;2023-12-20T01:34:54;100548.06;;;-3.35;100.00
73063;BME280;61230;46.328;19.972;2023-12-20T01:37:28;100600.28;;;-3.07;100.00
73063;BME280;61230;46.328;19.972;2023-12-20T01:39:56;100594.00;;;-2.98;100.00
73063;BME280;61230;46.328;19.972;2023-12-20T01:42:24;100598.28;;;-2.99;100.00
73063;BME280;61230;46.328;19.972;2023-12-20T01:44:52;100591.03;;;-2.87;100.00
73063;BME280;61230;46.328;19.972;2023-12-20T01:47:20;100577.81;;;-2.77;100.00
73063;BME280;61230;46.328;19.972;2023-12-20T01:49:49;100571.91;;;-2.56;100.00
73063;BME280;61230;46.328;19.972;2023-12-20T01:52:17;100565.28;;;-2.63;100.00
73063;BME280;61230;46.328;19.972;2023-12-20T01:54:45;100511.50;;;-2.95;100.00
73063;BME280;61230;46.328;19.972;2023-12-20T01:57:13;100557.19;;;-2.77;100.00
73063;BME280;61230;46.328;19.972;2023-12-20T01:59:41;100557.41;;;-2.58;100.00
73063;BME280;61230;46.328;19.972;2023-12-20T02:02:09;100548.66;;;-2.54;100.00
73063;BME280;61230;46.328;19.972;2023-12-20T02:04:39;100535.59;;;-2.50;100.00
73063;BME280;61230;46.328;19.972;2023-12-20T02:07:08;100481.88;;;-2.82;100.00
73063;BME280;61230;46.328;19.972;2023-12-20T02:09:36;100528.16;;;-2.34;100.00
73063;BME280;61230;46.328;19.972;2023-12-20T02:12:05;100520.44;;;-2.34;100.00
73063;BME280;61230;46.328;19.972;2023-12-20T02:14:33;100525.78;;;-2.39;100.00
73063;BME280;61230;46.328;19.972;2023-12-20T02:17:01;100522.56;;;-2.45;100.00
73063;BME280;61230;46.328;19.972;2023-12-20T02:19:28;100513.03;;;-2.43;100.00
73063;BME280;61230;46.328;19.972;2023-12-20T02:22:09;100517.81;;;-2.56;100.00
73063;BME280;61230;46.328;19.972;2023-12-20T02:24:38;100508.06;;;-2.71;100.00
73063;BME280;61230;46.328;19.972;2023-12-20T02:27:07;100446.59;;;-3.03;100.00
73063;BME280;61230;46.328;19.972;2023-12-20T02:29:35;100447.22;;;-3.20;100.00
73063;BME280;61230;46.328;19.972;2023-12-20T02:32:03;100502.97;;;-2.96;100.00
73063;BME280;61230;46.328;19.972;2023-12-20T02:34:31;100496.47;;;-2.82;100.00
73063;BME280;61230;46.328;19.972;2023-12-20T02:36:59;100495.31;;;-2.74;100.00
73063;BME280;61230;46.328;19.972;2023-12-20T02:39:26;100491.50;;;-2.64;100.00
73063;BME280;61230;46.328;19.972;2023-12-20T02:41:54;100483.63;;;-2.59;100.00
73063;BME280;61230;46.328;19.972;2023-12-20T02:44:22;100477.50;;;-2.57;100.00
73063;BME280;61230;46.328;19.972;2023-12-20T02:46:50;100477.50;;;-2.80;100.00
73063;BME280;61230;46.328;19.972;2023-12-20T02:49:17;100479.00;;;-2.74;100.00
73063;BME280;61230;46.328;19.972;2023-12-20T02:51:45;100475.16;;;-2.86;100.00
73063;BME280;61230;46.328;19.972;2023-12-20T02:54:14;100420.25;;;-3.33;100.00
73063;BME280;61230;46.328;19.972;2023-12-20T02:56:42;100474.25;;;-3.08;100.00
73063;BME280;61230;46.328;19.972;2023-12-20T02:59:09;100472.78;;;-3.15;100.00
73063;BME280;61230;46.328;19.972;2023-12-20T03:01:44;100467.00;;;-3.22;100.00
73063;BME280;61230;46.328;19.972;2023-12-20T03:04:12;100401.88;;;-3.47;100.00
73063;BME280;61230;46.328;19.972;2023-12-20T03:06:40;100452.06;;;-2.87;100.00
73063;BME280;61230;46.328;19.972;2023-12-20T03:09:08;100463.13;;;-2.85;100.00
73063;BME280;61230;46.328;19.972;2023-12-20T03:11:36;100452.28;;;-2.94;100.00
73063;BME280;61230;46.328;19.972;2023-12-20T03:14:03;100449.72;;;-2.95;100.00
73063;BME280;61230;46.328;19.972;2023-12-20T03:16:31;100392.44;;;-3.46;100.00
73063;BME280;61230;46.328;19.972;2023-12-20T03:19:03;100440.78;;;-3.08;100.00
73063;BME280;61230;46.328;19.972;2023-12-20T03:21:31;100442.84;;;-2.95;100.00
73063;BME280;61230;46.328;19.972;2023-12-20T03:23:58;100442.97;;;-2.98;100.00
73063;BME280;61230;46.328;19.972;2023-12-20T03:26:26;100403.78;;;-3.29;100.00
73063;BME280;61230;46.328;19.972;2023-12-20T03:28:54;100439.12;;;-3.34;100.00
73063;BME280;61230;46.328;19.972;2023-12-20T03:31:21;100445.41;;;-3.41;100.00
73063;BME280;61230;46.328;19.972;2023-12-20T03:33:50;100443.41;;;-3.33;100.00
73063;BME280;61230;46.328;19.972;2023-12-20T03:36:20;100435.88;;;-3.39;100.00
73063;BME280;61230;46.328;19.972;2023-12-20T03:38:48;100423.22;;;-3.20;100.00
73063;BME280;61230;46.328;19.972;2023-12-20T03:41:15;100422.66;;;-3.28;100.00
73063;BME280;61230;46.328;19.972;2023-12-20T03:43:43;100417.34;;;-3.01;100.00
73063;BME280;61230;46.328;19.972;2023-12-20T03:46:11;100415.41;;;-3.42;100.00
73063;BME280;61230;46.328;19.972;2023-12-20T03:48:39;100363.00;;;-3.87;100.00
73063;BME280;61230;46.328;19.972;2023-12-20T03:51:07;100419.87;;;-3.47;100.00
73063;BME280;61230;46.328;19.972;2023-12-20T03:53:34;100419.03;;;-3.72;100.00
73063;BME280;61230;46.328;19.972;2023-12-20T03:56:02;100418.47;;;-3.80;100.00
73063;BME280;61230;46.328;19.972;2023-12-20T03:58:30;100419.34;;;-3.81;100.00
73063;BME280;61230;46.328;19.972;2023-12-20T04:00:57;100360.75;;;-3.96;100.00
73063;BME280;61230;46.328;19.972;2023-12-20T04:03:25;100415.44;;;-3.67;100.00
73063;BME280;61230;46.328;19.972;2023-12-20T04:05:53;100411.22;;;-3.69;100.00
73063;BME280;61230;46.328;19.972;2023-12-20T04:08:21;100401.88;;;-3.72;100.00
73063;BME280;61230;46.328;19.972;2023-12-20T04:10:48;100395.19;;;-3.77;100.00
73063;BME280;61230;46.328;19.972;2023-12-20T04:13:16;100399.16;;;-3.42;100.00
73063;BME280;61230;46.328;19.972;2023-12-20T04:15:44;100380.44;;;-3.23;100.00
73063;BME280;61230;46.328;19.972;2023-12-20T04:18:12;100377.84;;;-3.46;100.00
73063;BME280;61230;46.328;19.972;2023-12-20T04:20:39;100399.81;;;-3.37;100.00
73063;BME280;61230;46.328;19.972;2023-12-20T04:23:07;100391.03;;;-3.55;100.00
73063;BME280;61230;46.328;19.972;2023-12-20T04:25:35;100338.47;;;-3.96;100.00
73063;BME280;61230;46.328;19.972;2023-12-20T04:28:03;100386.59;;;-3.52;100.00
73063;BME280;61230;46.328;19.972;2023-12-20T04:30:31;100399.16;;;-3.42;100.00
73063;BME280;61230;46.328;19.972;2023-12-20T04:32:59;100389.81;;;-3.45;100.00
73063;BME280;61230;46.328;19.972;2023-12-20T04:35:27;100376.69;;;-3.62;100.00
73063;BME280;61230;46.328;19.972;2023-12-20T04:37:55;100291.47;;;-3.75;100.00
73063;BME280;61230;46.328;19.972;2023-12-20T04:40:23;100378.63;;;-3.69;100.00
73063;BME280;61230;46.328;19.972;2023-12-20T04:42:51;100375.97;;;-3.66;100.00
73063;BME280;61230;46.328;19.972;2023-12-20T04:45:18;100369.78;;;-3.37;100.00
73063;BME280;61230;46.328;19.972;2023-12-20T04:47:47;100311.31;;;-3.78;100.00
73063;BME280;61230;46.328;19.972;2023-12-20T04:50:15;100365.72;;;-3.42;100.00
73063;BME280;61230;46.328;19.972;2023-12-20T04:52:43;100361.00;;;-3.55;100.00
73063;BME280;61230;46.328;19.972;2023-12-20T04:55:11;100345.00;;;-3.38;100.00
73063;BME280;61230;46.328;19.972;2023-12-20T04:57:39;100348.81;;;-3.26;100.00
73063;BME280;61230;46.328;19.972;2023-12-20T05:00:07;100347.66;;;-3.18;100.00
73063;BME280;61230;46.328;19.972;2023-12-20T05:02:36;100341.41;;;-3.11;100.00
73063;BME280;61230;46.328;19.972;2023-12-20T05:05:04;100341.59;;;-3.15;100.00
73063;BME280;61230;46.328;19.972;2023-12-20T05:07:32;100337.62;;;-3.02;100.00
73063;BME280;61230;46.328;19.972;2023-12-20T05:10:00;100338.59;;;-2.83;100.00
73063;BME280;61230;46.328;19.972;2023-12-20T05:12:28;100344.00;;;-2.89;100.00
73063;BME280;61230;46.328;19.972;2023-12-20T05:14:56;100346.09;;;-2.99;100.00
73063;BME280;61230;46.328;19.972;2023-12-20T05:17:24;100337.50;;;-3.21;100.00
73063;BME280;61230;46.328;19.972;2023-12-20T05:19:52;100340.22;;;-3.25;100.00
73063;BME280;61230;46.328;19.972;2023-12-20T05:22:20;100342.50;;;-3.18;100.00
73063;BME280;61230;46.328;19.972;2023-12-20T05:24:48;100329.63;;;-3.18;100.00
73063;BME280;61230;46.328;19.972;2023-12-20T05:27:16;100334.53;;;-3.10;100.00
73063;BME280;61230;46.328;19.972;2023-12-20T05:29:43;100332.16;;;-3.16;100.00
73063;BME280;61230;46.328;19.972;2023-12-20T05:32:11;100330.56;;;-3.19;100.00
73063;BME280;61230;46.328;19.972;2023-12-20T05:34:39;100326.81;;;-3.33;100.00
73063;BME280;61230;46.328;19.972;2023-12-20T05:37:07;100321.25;;;-3.23;100.00
73063;BME280;61230;46.328;19.972;2023-12-20T05:39:35;100315.22;;;-2.99;100.00
73063;BME280;61230;46.328;19.972;2023-12-20T05:42:03;100318.56;;;-2.97;100.00
73063;BME280;61230;46.328;19.972;2023-12-20T05:44:31;100324.44;;;-2.71;100.00
73063;BME280;61230;46.328;19.972;2023-12-20T05:46:59;100265.22;;;-3.15;100.00
73063;BME280;61230;46.328;19.972;2023-12-20T05:49:26;100318.75;;;-3.01;100.00
73063;BME280;61230;46.328;19.972;2023-12-20T05:51:54;100270.13;;;-3.30;100.00
73063;BME280;61230;46.328;19.972;2023-12-20T05:54:22;100315.97;;;-2.97;100.00
73063;BME280;61230;46.328;19.972;2023-12-20T05:56:50;100309.22;;;-2.77;100.00
73063;BME280;61230;46.328;19.972;2023-12-20T05:59:18;100312.97;;;-2.86;100.00
73063;BME280;61230;46.328;19.972;2023-12-20T06:01:46;100314.25;;;-2.96;100.00
73063;BME280;61230;46.328;19.972;2023-12-20T06:04:14;100319.25;;;-3.15;100.00
73063;BME280;61230;46.328;19.972;2023-12-20T06:06:43;100318.66;;;-3.21;100.00
73063;BME280;61230;46.328;19.972;2023-12-20T06:09:11;100263.94;;;-3.26;100.00
73063;BME280;61230;46.328;19.972;2023-12-20T06:11:39;100300.75;;;-3.24;100.00
73063;BME280;61230;46.328;19.972;2023-12-20T06:14:07;100260.69;;;-3.53;100.00
73063;BME280;61230;46.328;19.972;2023-12-20T06:16:35;100316.44;;;-3.32;100.00
73063;BME280;61230;46.328;19.972;2023-12-20T06:19:02;100306.16;;;-3.09;100.00
73063;BME280;61230;46.328;19.972;2023-12-20T06:21:30;100319.81;;;-2.85;100.00
73063;BME280;61230;46.328;19.972;2023-12-20T06:23:59;100312.78;;;-3.25;100.00
73063;BME280;61230;46.328;19.972;2023-12-20T06:26:27;100270.44;;;-3.39;100.00
73063;BME280;61230;46.328;19.972;2023-12-20T06:28:55;100319.41;;;-3.19;100.00
73063;BME280;61230;46.328;19.972;2023-12-20T06:31:23;100322.28;;;-3.27;100.00
73063;BME280;61230;46.328;19.972;2023-12-20T06:33:51;100330.22;;;-3.33;100.00
73063;BME280;61230;46.328;19.972;2023-12-20T06:36:26;100280.69;;;-3.61;100.00
73063;BME280;61230;46.328;19.972;2023-12-20T06:38:54;100314.28;;;-3.42;100.00
73063;BME280;61230;46.328;19.972;2023-12-20T06:41:25;100326.66;;;-3.52;100.00
73063;BME280;61230;46.328;19.972;2023-12-20T06:43:54;100340.22;;;-3.02;100.00
73063;BME280;61230;46.328;19.972;2023-12-20T06:46:22;100339.81;;;-3.15;100.00
73063;BME280;61230;46.328;19.972;2023-12-20T06:48:49;100345.19;;;-2.98;100.00
73063;BME280;61230;46.328;19.972;2023-12-20T06:51:18;100347.25;;;-3.54;100.00
73063;BME280;61230;46.328;19.972;2023-12-20T06:53:48;100360.22;;;-3.57;100.00
73063;BME280;61230;46.328;19.972;2023-12-20T06:56:15;100357.72;;;-3.58;100.00
73063;BME280;61230;46.328;19.972;2023-12-20T06:58:46;100353.97;;;-3.03;100.00
73063;BME280;61230;46.328;19.972;2023-12-20T07:01:16;100348.13;;;-3.30;100.00
73063;BME280;61230;46.328;19.972;2023-12-20T07:03:45;100359.53;;;-3.62;100.00
73063;BME280;61230;46.328;19.972;2023-12-20T07:06:13;100359.66;;;-3.89;100.00
73063;BME280;61230;46.328;19.972;2023-12-20T07:08:44;100351.69;;;-3.82;100.00
73063;BME280;61230;46.328;19.972;2023-12-20T07:11:12;100349.13;;;-3.82;100.00
73063;BME280;61230;46.328;19.972;2023-12-20T07:13:41;100347.78;;;-3.93;100.00
73063;BME280;61230;46.328;19.972;2023-12-20T07:16:09;100350.81;;;-3.81;100.00
73063;BME280;61230;46.328;19.972;2023-12-20T07:18:37;100352.94;;;-3.69;100.00
73063;BME280;61230;46.328;19.972;2023-12-20T07:21:06;100337.03;;;-3.55;100.00
73063;BME280;61230;46.328;19.972;2023-12-20T07:23:36;100302.00;;;-3.58;100.00
73063;BME280;61230;46.328;19.972;2023-12-20T07:26:03;100343.47;;;-3.43;100.00
73063;BME280;61230;46.328;19.972;2023-12-20T07:28:32;100345.09;;;-3.41;100.00
73063;BME280;61230;46.328;19.972;2023-12-20T07:31:00;100355.72;;;-3.27;100.00
73063;BME280;61230;46.328;19.972;2023-12-20T07:33:28;100342.91;;;-3.28;100.00
73063;BME280;61230;46.328;19.972;2023-12-20T07:36:03;100293.31;;;-3.32;100.00
73063;BME280;61230;46.328;19.972;2023-12-20T07:38:31;100335.41;;;-3.11;100.00
73063;BME280;61230;46.328;19.972;2023-12-20T07:40:59;100341.72;;;-3.20;100.00
73063;BME280;61230;46.328;19.972;2023-12-20T07:43:27;100341.59;;;-2.94;100.00
73063;BME280;61230;46.328;19.972;2023-12-20T07:45:55;100341.72;;;-3.20;100.00
73063;BME280;61230;46.328;19.972;2023-12-20T07:48:22;100343.34;;;-2.94;100.00
73063;BME280;61230;46.328;19.972;2023-12-20T07:50:51;100343.84;;;-2.84;100.00
73063;BME280;61230;46.328;19.972;2023-12-20T07:53:20;100342.75;;;-2.57;100.00
73063;BME280;61230;46.328;19.972;2023-12-20T07:55:48;100339.69;;;-2.45;100.00
73063;BME280;61230;46.328;19.972;2023-12-20T07:58:16;100333.75;;;-2.91;100.00
73063;BME280;61230;46.328;19.972;2023-12-20T08:00:44;100344.31;;;-2.53;100.00
73063;BME280;61230;46.328;19.972;2023-12-20T08:03:12;100337.22;;;-2.92;100.00
73063;BME280;61230;46.328;19.972;2023-12-20T08:05:40;100233.25;;;-3.09;100.00
73063;BME280;61230;46.328;19.972;2023-12-20T08:08:08;100343.41;;;-2.52;100.00
73063;BME280;61230;46.328;19.972;2023-12-20T08:10:36;100336.00;;;-2.81;100.00
73063;BME280;61230;46.328;19.972;2023-12-20T08:13:04;100290.56;;;-3.04;100.00
73063;BME280;61230;46.328;19.972;2023-12-20T08:15:31;100325.31;;;-2.72;100.00
73063;BME280;61230;46.328;19.972;2023-12-20T08:18:00;100323.78;;;-2.76;100.00
73063;BME280;61230;46.328;19.972;2023-12-20T08:20:28;100282.28;;;-2.69;100.00
73063;BME280;61230;46.328;19.972;2023-12-20T08:23:07;100283.00;;;-2.65;100.00
73063;BME280;61230;46.328;19.972;2023-12-20T08:25:35;100326.28;;;-2.53;100.00
73063;BME280;61230;46.328;19.972;2023-12-20T08:28:03;100322.50;;;-2.45;100.00
73063;BME280;61230;46.328;19.972;2023-12-20T08:30:32;100315.50;;;-2.63;100.00
73063;BME280;61230;46.328;19.972;2023-12-20T08:33:00;100262.47;;;-2.88;100.00
73063;BME280;61230;46.328;19.972;2023-12-20T08:35:29;100319.69;;;-2.39;100.00
73063;BME280;61230;46.328;19.972;2023-12-20T08:37:57;100310.22;;;-2.60;100.00
73063;BME280;61230;46.328;19.972;2023-12-20T08:40:26;100308.69;;;-2.02;100.00
73063;BME280;61230;46.328;19.972;2023-12-20T08:42:54;100308.75;;;-2.23;100.00
73063;BME280;61230;46.328;19.972;2023-12-20T08:45:23;100257.25;;;-2.65;100.00
73063;BME280;61230;46.328;19.972;2023-12-20T08:47:51;100265.69;;;-2.62;100.00
73063;BME280;61230;46.328;19.972;2023-12-20T08:50:19;100305.31;;;-2.04;100.00
73063;BME280;61230;46.328;19.972;2023-12-20T08:52:48;100307.25;;;-2.29;100.00
73063;BME280;61230;46.328;19.972;2023-12-20T08:55:16;100251.66;;;-2.55;100.00
73063;BME280;61230;46.328;19.972;2023-12-20T08:57:46;100309.72;;;-2.26;100.00
73063;BME280;61230;46.328;19.972;2023-12-20T09:00:15;100304.94;;;-2.15;100.00
73063;BME280;61230;46.328;19.972;2023-12-20T09:02:44;100302.22;;;-1.71;100.00
73063;BME280;61230;46.328;19.972;2023-12-20T09:05:11;100294.47;;;-1.33;100.00
73063;BME280;61230;46.328;19.972;2023-12-20T09:07:40;100293.50;;;-1.69;100.00
73063;BME280;61230;46.328;19.972;2023-12-20T09:10:08;100285.31;;;-1.21;100.00
73063;BME280;61230;46.328;19.972;2023-12-20T09:12:36;100242.38;;;-1.59;100.00
73063;BME280;61230;46.328;19.972;2023-12-20T09:15:07;100287.06;;;-1.03;100.00
73063;BME280;61230;46.328;19.972;2023-12-20T09:17:35;100286.94;;;-1.00;100.00
73063;BME280;61230;46.328;19.972;2023-12-20T09:20:03;100214.69;;;-1.56;100.00
73063;BME280;61230;46.328;19.972;2023-12-20T09:22:34;100259.00;;;-1.10;100.00
73063;BME280;61230;46.328;19.972;2023-12-20T09:25:02;100256.31;;;-0.90;100.00
73063;BME280;61230;46.328;19.972;2023-12-20T09:27:30;100187.91;;;-0.99;100.00
73063;BME280;61230;46.328;19.972;2023-12-20T09:29:58;100187.69;;;-0.77;100.00
73063;BME280;61230;46.328;19.972;2023-12-20T09:32:26;100239.72;;;-0.68;100.00
73063;BME280;61230;46.328;19.972;2023-12-20T09:34:54;100239.28;;;-0.24;100.00
73063;BME280;61230;46.328;19.972;2023-12-20T09:37:23;100228.34;;;-0.64;100.00
73063;BME280;61230;46.328;19.972;2023-12-20T09:39:51;100219.59;;;-0.78;100.00
73063;BME280;61230;46.328;19.972;2023-12-20T09:42:39;100221.56;;;-0.83;100.00
73063;BME280;61230;46.328;19.972;2023-12-20T09:45:13;100225.41;;;-1.09;100.00
73063;BME280;61230;46.328;19.972;2023-12-20T09:47:43;100237.44;;;-0.74;100.00
73063;BME280;61230;46.328;19.972;2023-12-20T09:50:12;100250.47;;;-1.48;100.00
73063;BME280;61230;46.328;19.972;2023-12-20T09:52:41;100243.19;;;-1.22;100.00
73063;BME280;61230;46.328;19.972;2023-12-20T09:55:10;100240.13;;;-1.11;100.00
73063;BME280;61230;46.328;19.972;2023-12-20T09:57:39;100242.72;;;-1.30;100.00
73063;BME280;61230;46.328;19.972;2023-12-20T10:00:11;100252.53;;;-1.19;100.00
73063;BME280;61230;46.328;19.972;2023-12-20T10:02:44;100204.22;;;-1.53;100.00
73063;BME280;61230;46.328;19.972;2023-12-20T10:05:16;100253.13;;;-0.77;100.00
73063;BME280;61230;46.328;19.972;2023-12-20T10:07:47;100259.16;;;-0.95;100.00
73063;BME280;61230;46.328;19.972;2023-12-20T10:10:15;100251.78;;;-1.02;100.00
73063;BME280;61230;46.328;19.972;2023-12-20T10:13:04;100256.59;;;-0.78;100.00
73063;BME280;61230;46.328;19.972;2023-12-20T10:15:34;100263.34;;;-0.75;100.00
73063;BME280;61230;46.328;19.972;2023-12-20T10:18:03;100259.72;;;-0.71;100.00
73063;BME280;61230;46.328;19.972;2023-12-20T10:20:31;100256.44;;;-1.29;100.00
73063;BME280;61230;46.328;19.972;2023-12-20T10:23:01;100253.13;;;-1.31;100.00
73063;BME280;61230;46.328;19.972;2023-12-20T10:25:29;100236.75;;;-1.13;100.00
73063;BME280;61230;46.328;19.972;2023-12-20T10:28:16;100257.63;;;-0.82;100.00
73063;BME280;61230;46.328;19.972;2023-12-20T10:30:47;100251.97;;;-1.07;100.00
73063;BME280;61230;46.328;19.972;2023-12-20T10:33:30;100242.72;;;-1.11;100.00
73063;BME280;61230;46.328;19.972;2023-12-20T10:36:00;100224.31;;;-0.86;100.00
73063;BME280;61230;46.328;19.972;2023-12-20T10:38:28;100208.69;;;-1.02;100.00
73063;BME280;61230;46.328;19.972;2023-12-20T10:40:58;100228.62;;;-1.23;100.00
73063;BME280;61230;46.328;19.972;2023-12-20T10:43:30;100232.75;;;-0.66;100.00
73063;BME280;61230;46.328;19.972;2023-12-20T10:46:00;100164.16;;;-1.24;100.00
73063;BME280;61230;46.328;19.972;2023-12-20T10:48:30;100218.16;;;-0.49;100.00
73063;BME280;61230;46.328;19.972;2023-12-20T10:51:01;100225.75;;;-0.64;100.00
73063;BME280;61230;46.328;19.972;2023-12-20T10:53:29;100225.50;;;-0.93;100.00
73063;BME280;61230;46.328;19.972;2023-12-20T10:56:00;100231.81;;;-0.82;100.00
73063;BME280;61230;46.328;19.972;2023-12-20T10:58:29;100234.25;;;-1.14;100.00
73063;BME280;61230;46.328;19.972;2023-12-20T11:01:01;100222.25;;;-1.16;100.00
73063;BME280;61230;46.328;19.972;2023-12-20T11:03:36;100228.84;;;-0.91;100.00
73063;BME280;61230;46.328;19.972;2023-12-20T11:08:47;100223.22;;;-0.82;100.00
73063;BME280;61230;46.328;19.972;2023-12-20T11:11:24;100213.56;;;-0.96;100.00
73063;BME280;61230;46.328;19.972;2023-12-20T11:16:27;100220.22;;;-1.09;100.00
73063;BME280;61230;46.328;19.972;2023-12-20T11:19:11;100208.50;;;-0.97;100.00
73063;BME280;61230;46.328;19.972;2023-12-20T11:21:41;100208.41;;;-0.96;100.00
73063;BME280;61230;46.328;19.972;2023-12-20T11:24:09;100207.53;;;-0.78;100.00
73063;BME280;61230;46.328;19.972;2023-12-20T11:26:37;100207.25;;;-0.54;100.00
73063;BME280;61230;46.328;19.972;2023-12-20T11:29:36;100209.25;;;-0.27;100.00
73063;BME280;61230;46.328;19.972;2023-12-20T11:34:57;100214.03;;;-0.88;100.00
73063;BME280;61230;46.328;19.972;2023-12-20T11:37:30;100205.31;;;-0.51;100.00
73063;BME280;61230;46.328;19.972;2023-12-20T11:40:12;100203.81;;;-0.55;100.00
73063;BME280;61230;46.328;19.972;2023-12-20T11:42:44;100207.81;;;-0.32;100.00
73063;BME280;61230;46.328;19.972;2023-12-20T11:45:21;100142.84;;;-0.42;100.00
73063;BME280;61230;46.328;19.972;2023-12-20T11:47:56;100196.25;;;-0.25;100.00
73063;BME280;61230;46.328;19.972;2023-12-20T11:50:25;100196.25;;;-0.25;100.00
73063;BME280;61230;46.328;19.972;2023-12-20T11:52:55;100181.28;;;-0.19;100.00
73063;BME280;61230;46.328;19.972;2023-12-20T11:55:23;100192.47;;;-0.35;100.00
73063;BME280;61230;46.328;19.972;2023-12-20T11:57:51;100190.88;;;-0.38;100.00
73063;BME280;61230;46.328;19.972;2023-12-20T12:00:19;100178.38;;;-0.13;100.00
73063;BME280;61230;46.328;19.972;2023-12-20T12:02:58;100163.28;;;-0.05;100.00
73063;BME280;61230;46.328;19.972;2023-12-20T12:05:26;100154.00;;;0.24;100.00
73063;BME280;61230;46.328;19.972;2023-12-20T12:07:54;100148.56;;;0.13;100.00
73063;BME280;61230;46.328;19.972;2023-12-20T12:10:22;100159.69;;;0.31;100.00
73063;BME280;61230;46.328;19.972;2023-12-20T12:12:50;100106.88;;;-0.29;100.00
73063;BME280;61230;46.328;19.972;2023-12-20T12:15:19;100147.97;;;0.08;100.00
73063;BME280;61230;46.328;19.972;2023-12-20T12:17:54;100146.50;;;-0.13;100.00
73063;BME280;61230;46.328;19.972;2023-12-20T12:20:23;100154.34;;;-0.15;100.00
73063;BME280;61230;46.328;19.972;2023-12-20T12:23:02;100151.97;;;-0.35;100.00
73063;BME280;61230;46.328;19.972;2023-12-20T12:25:31;100153.56;;;-0.17;100.00
73063;BME280;61230;46.328;19.972;2023-12-20T12:28:00;100157.44;;;-0.08;100.00
73063;BME280;61230;46.328;19.972;2023-12-20T12:30:29;100105.03;;;-0.27;100.00
73063;BME280;61230;46.328;19.972;2023-12-20T12:33:06;100150.41;;;0.11;100.00
73063;BME280;61230;46.328;19.972;2023-12-20T12:35:34;100145.19;;;-0.05;100.00
73063;BME280;61230;46.328;19.972;2023-12-20T12:38:02;100179.69;;;0.27;100.00
73063;BME280;61230;46.328;19.972;2023-12-20T12:40:34;100175.84;;;0.19;100.00
73063;BME280;61230;46.328;19.972;2023-12-20T12:43:03;100185.09;;;-0.26;100.00
73063;BME280;61230;46.328;19.972;2023-12-20T12:45:33;100178.06;;;-0.07;100.00
73063;BME280;61230;46.328;19.972;2023-12-20T12:48:01;100170.78;;;-0.16;100.00